createdAt,value
2024-02-26T00:00:47.713Z,5.40
2024-02-26T00:03:50.519Z,5.43
2024-02-26T00:06:55.483Z,5.38
2024-02-26T00:09:58.218Z,5.34
2024-02-26T00:13:00.640Z,5.32
2024-02-26T00:16:04.801Z,5.31
2024-02-26T00:19:07.357Z,5.33
2024-02-26T00:22:10.167Z,5.22
2024-02-26T00:25:13.825Z,5.09
2024-02-26T00:28:16.744Z,5.09
2024-02-26T00:31:19.147Z,5.05
2024-02-26T00:34:21.991Z,5.07
2024-02-26T00:37:24.448Z,5.06
2024-02-26T00:40:27.243Z,5.01
2024-02-26T00:43:29.805Z,4.96
2024-02-26T00:46:32.500Z,5.02
2024-02-26T00:49:34.940Z,4.93
2024-02-26T00:52:37.606Z,4.89
2024-02-26T00:55:40.044Z,4.62
2024-02-26T00:58:42.703Z,4.82
2024-02-26T01:01:45.038Z,4.84
2024-02-26T01:04:47.815Z,4.78
2024-02-26T01:07:50.336Z,4.75
2024-02-26T01:10:53.097Z,4.70
2024-02-26T01:13:57.782Z,4.44
2024-02-26T01:17:00.824Z,4.69
2024-02-26T01:20:03.588Z,4.73
2024-02-26T01:23:06.369Z,4.71
2024-02-26T01:26:08.767Z,4.74
2024-02-26T01:29:11.511Z,4.82
2024-02-26T01:32:14.015Z,4.89
2024-02-26T01:35:16.896Z,4.95
2024-02-26T01:38:19.283Z,4.98
2024-02-26T01:41:21.975Z,4.96
2024-02-26T01:44:24.339Z,4.95
2024-02-26T01:47:28.244Z,4.92
2024-02-26T01:50:30.619Z,4.97
2024-02-26T01:53:33.329Z,4.89
2024-02-26T01:56:36.570Z,4.92
2024-02-26T01:59:41.207Z,4.88
2024-02-26T02:02:45.801Z,4.85
2024-02-26T02:05:48.544Z,4.89
2024-02-26T02:08:50.949Z,4.81
2024-02-26T02:11:53.888Z,4.79
2024-02-26T02:14:56.453Z,4.79
2024-02-26T02:17:59.214Z,4.74
2024-02-26T02:21:02.359Z,4.68
2024-02-26T02:24:05.443Z,4.69
2024-02-26T02:27:07.935Z,4.68
2024-02-26T02:30:12.129Z,4.65
2024-02-26T02:33:16.427Z,4.67
2024-02-26T02:36:19.288Z,4.71
2024-02-26T02:39:22.521Z,4.68
2024-02-26T02:42:25.348Z,4.56
2024-02-26T02:45:27.781Z,4.46
2024-02-26T02:48:30.723Z,4.52
2024-02-26T02:51:33.202Z,4.44
2024-02-26T02:54:36.857Z,4.35
2024-02-26T02:57:42.348Z,4.30
2024-02-26T03:00:45.498Z,4.34
2024-02-26T03:03:47.938Z,4.33
2024-02-26T03:06:50.725Z,4.27
2024-02-26T03:09:53.203Z,4.31
2024-02-26T03:12:57.307Z,4.22
2024-02-26T03:15:59.718Z,4.27
2024-02-26T03:19:02.853Z,4.23
2024-02-26T03:22:05.469Z,4.22
2024-02-26T03:25:08.758Z,4.23
2024-02-26T03:28:11.193Z,4.16
2024-02-26T03:31:13.953Z,4.15
2024-02-26T03:34:16.535Z,4.14
2024-02-26T03:37:19.296Z,4.25
2024-02-26T03:40:21.722Z,4.10
2024-02-26T03:43:27.155Z,4.04
2024-02-26T03:46:29.650Z,4.00
2024-02-26T03:49:32.426Z,4.06
2024-02-26T03:52:35.124Z,4.10
2024-02-26T03:55:38.142Z,4.17
2024-02-26T03:58:40.809Z,4.11
2024-02-26T04:01:48.299Z,4.15
2024-02-26T04:04:51.056Z,4.19
2024-02-26T04:07:53.571Z,4.11
2024-02-26T04:10:56.284Z,4.29
2024-02-26T04:13:58.743Z,4.30
2024-02-26T04:17:01.465Z,4.38
2024-02-26T04:20:04.954Z,4.40
2024-02-26T04:23:07.657Z,4.47
2024-02-26T04:26:10.021Z,4.49
2024-02-26T04:29:12.881Z,4.59
2024-02-26T04:32:15.246Z,4.58
2024-02-26T04:35:18.337Z,4.61
2024-02-26T04:38:20.752Z,4.53
2024-02-26T04:41:23.399Z,4.58
2024-02-26T04:44:25.843Z,4.58
2024-02-26T04:47:28.529Z,4.53
2024-02-26T04:50:30.908Z,4.43
2024-02-26T04:53:33.546Z,4.37
2024-02-26T04:56:35.895Z,4.32
2024-02-26T04:59:38.754Z,4.30
2024-02-26T05:02:41.221Z,4.31
2024-02-26T05:05:44.672Z,4.29
2024-02-26T05:08:47.295Z,4.27
2024-02-26T05:11:50.004Z,4.26
2024-02-26T05:14:52.398Z,4.31
2024-02-26T05:17:55.167Z,4.32
2024-02-26T05:20:57.637Z,4.41
2024-02-26T05:24:00.416Z,4.37
2024-02-26T05:27:03.126Z,4.46
2024-02-26T05:30:06.669Z,4.47
2024-02-26T05:33:13.785Z,4.46
2024-02-26T05:36:23.347Z,4.42
2024-02-26T05:39:25.964Z,4.47
2024-02-26T05:42:28.715Z,4.50
2024-02-26T05:45:31.275Z,4.49
2024-02-26T05:48:34.078Z,4.78
2024-02-26T05:51:36.906Z,4.85
2024-02-26T05:54:39.542Z,4.86
2024-02-26T05:57:42.136Z,4.85
2024-02-26T06:00:44.905Z,4.84
2024-02-26T06:03:47.687Z,4.78
2024-02-26T06:06:50.816Z,4.79
2024-02-26T06:09:53.732Z,4.80
2024-02-26T06:12:56.133Z,4.77
2024-02-26T06:15:58.821Z,4.84
2024-02-26T06:19:01.715Z,4.90
2024-02-26T06:22:04.676Z,4.88
2024-02-26T06:25:07.350Z,4.95
2024-02-26T06:28:10.063Z,4.94
2024-02-26T06:31:12.516Z,4.93
2024-02-26T06:34:15.272Z,4.99
2024-02-26T06:37:17.687Z,5.06
2024-02-26T06:40:20.802Z,5.10
2024-02-26T06:43:23.167Z,5.15
2024-02-26T06:46:27.071Z,5.16
2024-02-26T06:49:30.089Z,5.31
2024-02-26T06:52:32.915Z,5.42
2024-02-26T06:55:35.673Z,5.54
2024-02-26T06:58:38.416Z,5.90
2024-02-26T07:01:44.326Z,6.41
2024-02-26T07:04:47.501Z,7.49
2024-02-26T07:07:50.139Z,8.37
2024-02-26T07:10:53.254Z,8.83
2024-02-26T07:13:56.210Z,8.92
2024-02-26T07:16:59.572Z,8.89
2024-02-26T07:20:03.451Z,8.78
2024-02-26T07:23:07.890Z,9.62
2024-02-26T07:26:12.781Z,10.15
2024-02-26T07:29:15.427Z,10.69
2024-02-26T07:32:18.377Z,11.02
2024-02-26T07:35:20.983Z,11.44
2024-02-26T07:38:32.204Z,11.37
2024-02-26T07:41:48.253Z,11.59
2024-02-26T07:44:50.934Z,11.99
2024-02-26T07:47:53.758Z,12.07
2024-02-26T07:50:56.306Z,12.82
2024-02-26T07:53:59.040Z,12.88
2024-02-26T07:57:02.485Z,13.25
2024-02-26T08:00:08.600Z,13.33
2024-02-26T08:03:11.715Z,13.51
2024-02-26T08:06:14.466Z,14.25
2024-02-26T08:09:17.318Z,14.15
2024-02-26T08:12:19.944Z,14.19
2024-02-26T08:15:22.686Z,14.11
2024-02-26T08:18:25.459Z,14.18
2024-02-26T08:21:28.591Z,15.02
2024-02-26T08:24:31.418Z,15.18
2024-02-26T08:27:34.577Z,14.83
2024-02-26T08:30:37.085Z,16.77
2024-02-26T08:33:40.060Z,15.91
2024-02-26T08:36:44.368Z,16.62
2024-02-26T08:39:47.033Z,16.22
2024-02-26T08:42:49.816Z,15.43
2024-02-26T08:45:52.472Z,17.01
2024-02-26T08:48:55.117Z,17.52
2024-02-26T08:51:57.998Z,17.65
2024-02-26T08:55:00.587Z,17.96
2024-02-26T08:58:03.346Z,17.28
2024-02-26T09:01:05.866Z,16.91
2024-02-26T09:04:09.033Z,17.49
2024-02-26T09:07:11.496Z,17.52
2024-02-26T09:10:14.300Z,18.59
2024-02-26T09:13:16.759Z,18.47
2024-02-26T09:16:19.428Z,18.83
2024-02-26T09:19:21.941Z,17.99
2024-02-26T09:22:24.684Z,18.45
2024-02-26T09:25:27.135Z,17.91
2024-02-26T09:28:32.790Z,18.32
2024-02-26T09:31:35.335Z,18.57
2024-02-26T09:34:38.495Z,18.66
2024-02-26T09:37:41.297Z,19.35
2024-02-26T09:40:44.091Z,19.91
2024-02-26T09:43:49.708Z,19.90
2024-02-26T09:46:53.538Z,18.83
2024-02-26T09:49:57.517Z,19.45
2024-02-26T09:53:01.321Z,18.66
2024-02-26T09:56:04.376Z,19.16
2024-02-26T09:59:11.551Z,18.88
2024-02-26T10:02:15.166Z,18.49
2024-02-26T10:05:21.530Z,17.76
2024-02-26T10:08:24.173Z,17.69
2024-02-26T10:11:26.979Z,17.75
2024-02-26T10:14:29.339Z,17.91
2024-02-26T10:17:32.732Z,18.65
2024-02-26T10:20:35.136Z,18.17
2024-02-26T10:23:37.859Z,18.81
2024-02-26T10:26:47.385Z,19.47
2024-02-26T10:29:52.915Z,18.28
2024-02-26T10:32:55.713Z,18.42
2024-02-26T10:35:58.708Z,18.69
2024-02-26T10:39:03.506Z,17.10
2024-02-26T10:42:10.947Z,16.84
2024-02-26T10:45:13.596Z,16.66
2024-02-26T10:48:16.606Z,17.01
2024-02-26T10:51:30.526Z,16.62
2024-02-26T10:54:34.221Z,17.01
2024-02-26T10:57:41.520Z,17.41
2024-02-26T11:00:45.096Z,16.87
2024-02-26T11:03:50.176Z,17.19
2024-02-26T11:06:56.910Z,16.93
2024-02-26T11:10:04.476Z,17.59
2024-02-26T11:13:07.585Z,17.05
2024-02-26T11:16:10.432Z,16.48
2024-02-26T11:19:15.193Z,15.71
2024-02-26T11:22:21.578Z,15.66
2024-02-26T11:25:27.981Z,15.16
2024-02-26T11:28:31.363Z,15.28
2024-02-26T11:31:37.114Z,15.18
2024-02-26T11:34:40.661Z,15.06
2024-02-26T11:37:52.758Z,14.98
2024-02-26T11:40:55.390Z,14.69
2024-02-26T11:44:06.701Z,14.50
2024-02-26T11:47:19.885Z,14.51
2024-02-26T11:50:40.654Z,14.61
2024-02-26T11:53:49.883Z,14.54
2024-02-26T11:56:53.501Z,14.51
2024-02-26T12:00:08.461Z,14.49
2024-02-26T12:03:13.409Z,14.41
2024-02-26T12:06:15.892Z,14.42
2024-02-26T12:09:37.406Z,14.48
2024-02-26T12:12:40.649Z,14.64
2024-02-26T12:15:56.565Z,14.61
2024-02-26T12:19:00.447Z,14.65
2024-02-26T12:22:03.729Z,14.41
2024-02-26T12:25:06.906Z,14.19
2024-02-26T12:28:09.605Z,14.11
2024-02-26T12:31:11.999Z,13.99
2024-02-26T12:34:15.155Z,14.01
2024-02-26T12:37:17.915Z,14.16
2024-02-26T12:40:21.009Z,14.30
2024-02-26T12:43:23.691Z,14.51
2024-02-26T12:46:26.562Z,14.66
2024-02-26T12:49:29.040Z,14.67
2024-02-26T12:52:36.518Z,14.72
2024-02-26T12:55:41.236Z,14.56
2024-02-26T12:58:44.568Z,14.62
2024-02-26T13:01:47.021Z,14.58
2024-02-26T13:04:50.267Z,14.42
2024-02-26T13:07:54.216Z,14.40
2024-02-26T13:10:57.120Z,14.34
2024-02-26T13:13:59.901Z,14.22
2024-02-26T13:17:03.375Z,14.13
2024-02-26T13:20:07.024Z,14.11
2024-02-26T13:23:13.528Z,14.01
2024-02-26T13:26:16.045Z,14.05
2024-02-26T13:29:21.733Z,14.07
2024-02-26T13:32:24.277Z,14.08
2024-02-26T13:35:27.723Z,14.18
2024-02-26T13:38:30.436Z,14.20
2024-02-26T13:41:33.517Z,14.17
2024-02-26T13:44:40.600Z,14.14
2024-02-26T13:47:43.508Z,14.05
2024-02-26T13:50:47.186Z,13.98
2024-02-26T13:53:50.360Z,13.94
2024-02-26T13:56:53.652Z,13.88
2024-02-26T13:59:56.700Z,13.82
2024-02-26T14:02:59.955Z,13.78
2024-02-26T14:06:03.057Z,13.79
2024-02-26T14:09:06.098Z,13.75
2024-02-26T14:12:09.335Z,13.73
2024-02-26T14:15:11.857Z,13.70
2024-02-26T14:18:14.732Z,13.42
2024-02-26T14:21:17.311Z,13.59
2024-02-26T14:24:24.441Z,13.55
2024-02-26T14:27:27.685Z,13.52
2024-02-26T14:30:30.509Z,13.49
2024-02-26T14:33:33.048Z,13.43
2024-02-26T14:36:35.967Z,13.38
2024-02-26T14:39:38.613Z,13.31
2024-02-26T14:42:42.060Z,13.21
2024-02-26T14:45:44.646Z,13.10
2024-02-26T14:48:47.487Z,13.05
2024-02-26T14:51:49.941Z,13.03
2024-02-26T14:54:52.595Z,13.00
2024-02-26T14:57:55.089Z,12.93
2024-02-26T15:00:58.143Z,12.96
2024-02-26T15:04:01.851Z,12.88
2024-02-26T15:07:05.357Z,12.86
2024-02-26T15:10:08.519Z,12.80
2024-02-26T15:13:11.309Z,12.79
2024-02-26T15:16:21.869Z,12.77
2024-02-26T15:19:24.774Z,12.75
2024-02-26T15:22:27.859Z,12.73
2024-02-26T15:25:31.002Z,12.72
2024-02-26T15:28:33.408Z,12.71
2024-02-26T15:31:37.290Z,12.65
2024-02-26T15:34:39.969Z,12.57
2024-02-26T15:37:43.164Z,12.49
2024-02-26T15:40:47.866Z,12.38
2024-02-26T15:43:51.660Z,12.31
2024-02-26T15:46:54.568Z,12.15
2024-02-26T15:49:58.608Z,12.04
2024-02-26T15:53:01.528Z,11.84
2024-02-26T15:56:04.396Z,11.78
2024-02-26T15:59:06.840Z,11.68
2024-02-26T16:02:09.861Z,11.50
2024-02-26T16:05:13.894Z,11.34
2024-02-26T16:08:21.902Z,11.22
2024-02-26T16:11:24.836Z,11.09
2024-02-26T16:14:47.757Z,10.94
2024-02-26T16:17:53.181Z,10.80
2024-02-26T16:20:55.880Z,10.74
2024-02-26T16:24:00.101Z,10.85
2024-02-26T16:27:02.613Z,10.66
2024-02-26T16:30:06.125Z,10.66
2024-02-26T16:33:08.754Z,10.60
2024-02-26T16:36:13.571Z,10.74
2024-02-26T16:39:16.122Z,10.61
2024-02-26T16:42:19.772Z,10.59
2024-02-26T16:45:22.512Z,10.38
2024-02-26T16:48:25.402Z,10.49
2024-02-26T16:51:27.957Z,10.38
2024-02-26T16:54:31.073Z,10.41
2024-02-26T16:57:33.841Z,10.34
2024-02-26T17:00:36.850Z,9.98
2024-02-26T17:03:39.963Z,10.14
2024-02-26T17:06:43.005Z,10.02
2024-02-26T17:09:45.549Z,10.02
2024-02-26T17:12:48.234Z,9.98
2024-02-26T17:15:50.806Z,9.96
2024-02-26T17:18:54.162Z,9.85
2024-02-26T17:21:56.797Z,9.84
2024-02-26T17:24:59.896Z,9.85
2024-02-26T17:28:03.010Z,9.89
2024-02-26T17:31:05.681Z,9.68
2024-02-26T17:34:10.106Z,9.58
2024-02-26T17:37:12.865Z,9.67
2024-02-26T17:40:15.450Z,9.38
2024-02-26T17:43:18.802Z,9.25
2024-02-26T17:46:21.610Z,9.16
2024-02-26T17:49:27.174Z,9.06
2024-02-26T17:52:35.191Z,8.92
2024-02-26T17:55:37.890Z,8.94
2024-02-26T17:58:42.988Z,8.92
2024-02-26T18:01:45.756Z,8.92
2024-02-26T18:04:48.528Z,8.81
2024-02-26T18:07:52.266Z,9.14
2024-02-26T18:10:54.924Z,8.93
2024-02-26T18:13:58.449Z,8.73
2024-02-26T18:17:01.257Z,8.56
2024-02-26T18:20:05.643Z,8.43
2024-02-26T18:23:08.348Z,8.30
2024-02-26T18:26:11.525Z,8.30
2024-02-26T18:29:14.169Z,8.44
2024-02-26T18:32:17.184Z,8.37
2024-02-26T18:35:20.430Z,8.34
2024-02-26T18:38:22.979Z,8.33
2024-02-26T18:41:26.097Z,8.43
2024-02-26T18:44:28.683Z,8.44
2024-02-26T18:47:31.984Z,8.70
2024-02-26T18:50:34.465Z,8.62
2024-02-26T18:53:37.370Z,8.65
2024-02-26T18:56:39.800Z,8.58
2024-02-26T18:59:44.532Z,8.64
2024-02-26T19:02:47.391Z,8.54
2024-02-26T19:05:50.263Z,8.42
2024-02-26T19:08:53.290Z,8.33
2024-02-26T19:11:57.786Z,8.36
2024-02-26T19:15:00.583Z,8.24
2024-02-26T19:18:05.612Z,8.21
2024-02-26T19:21:08.550Z,8.20
2024-02-26T19:24:11.377Z,8.23
2024-02-26T19:27:15.037Z,8.37
2024-02-26T19:30:18.000Z,8.30
2024-02-26T19:33:22.297Z,8.33
2024-02-26T19:36:25.198Z,8.23
2024-02-26T19:39:29.045Z,8.10
2024-02-26T19:42:31.980Z,8.06
2024-02-26T19:45:34.606Z,7.93
2024-02-26T19:48:39.837Z,7.89
2024-02-26T19:51:43.602Z,7.85
2024-02-26T19:54:46.788Z,7.80
2024-02-26T19:57:49.574Z,7.72
2024-02-26T20:00:52.590Z,7.70
2024-02-26T20:03:55.343Z,7.67
2024-02-26T20:06:57.874Z,7.81
2024-02-26T20:10:00.749Z,7.78
2024-02-26T20:13:03.935Z,7.84
2024-02-26T20:16:07.639Z,7.98
2024-02-26T20:19:12.550Z,7.92
2024-02-26T20:22:15.442Z,7.91
2024-02-26T20:25:17.907Z,7.98
2024-02-26T20:28:20.609Z,7.89
2024-02-26T20:31:22.977Z,8.02
2024-02-26T20:34:25.990Z,7.98
2024-02-26T20:37:29.612Z,7.98
2024-02-26T20:40:33.118Z,7.84
2024-02-26T20:43:35.672Z,7.77
2024-02-26T20:46:44.523Z,7.76
2024-02-26T20:49:47.495Z,7.67
2024-02-26T20:52:51.754Z,7.60
2024-02-26T20:55:54.150Z,7.57
2024-02-26T20:58:56.845Z,7.51
2024-02-26T21:01:59.313Z,7.57
2024-02-26T21:05:02.178Z,7.60
2024-02-26T21:08:09.234Z,7.62
2024-02-26T21:11:16.309Z,7.66
2024-02-26T21:14:18.867Z,7.75
2024-02-26T21:17:21.565Z,7.81
2024-02-26T21:20:26.124Z,7.92
2024-02-26T21:23:28.862Z,8.02
2024-02-26T21:26:31.251Z,8.20
2024-02-26T21:29:33.984Z,8.25
2024-02-26T21:32:36.501Z,8.37
2024-02-26T21:35:39.457Z,8.40
2024-02-26T21:38:49.758Z,8.38
2024-02-26T21:41:53.423Z,8.39
2024-02-26T21:44:56.037Z,8.32
2024-02-26T21:47:58.930Z,8.21
2024-02-26T21:51:05.754Z,8.09
2024-02-26T21:54:08.455Z,7.97
2024-02-26T21:57:10.931Z,7.97
2024-02-26T22:00:14.031Z,7.94
2024-02-26T22:03:16.780Z,7.93
2024-02-26T22:06:19.314Z,7.85
2024-02-26T22:09:22.037Z,7.93
2024-02-26T22:12:24.577Z,8.00
2024-02-26T22:15:27.403Z,7.86
2024-02-26T22:18:29.992Z,7.82
2024-02-26T22:21:34.127Z,7.90
2024-02-26T22:24:37.711Z,7.77
2024-02-26T22:27:40.656Z,7.83
2024-02-26T22:30:43.153Z,7.82
2024-02-26T22:33:46.718Z,7.76
2024-02-26T22:36:50.499Z,7.73
2024-02-26T22:39:53.342Z,7.71
2024-02-26T22:42:57.071Z,7.67
2024-02-26T22:46:00.102Z,7.67
2024-02-26T22:49:02.580Z,7.73
2024-02-26T22:52:05.972Z,7.73
2024-02-26T22:55:08.706Z,7.76
2024-02-26T22:58:11.364Z,7.84
2024-02-26T23:01:13.820Z,7.81
2024-02-26T23:04:16.548Z,7.66
2024-02-26T23:07:19.102Z,7.66
2024-02-26T23:10:22.749Z,7.46
2024-02-26T23:13:25.168Z,7.68
2024-02-26T23:16:29.006Z,7.69
2024-02-26T23:19:34.646Z,7.68
2024-02-26T23:22:45.316Z,7.70
2024-02-26T23:25:47.768Z,7.73
2024-02-26T23:28:50.776Z,7.80
2024-02-26T23:31:53.189Z,7.86
2024-02-26T23:34:56.059Z,7.83
2024-02-26T23:37:58.557Z,7.84
2024-02-26T23:41:02.081Z,7.82
2024-02-26T23:44:04.758Z,7.71
2024-02-26T23:47:07.733Z,7.46
2024-02-26T23:50:10.420Z,7.28
2024-02-26T23:53:13.141Z,7.14
2024-02-26T23:56:15.550Z,7.07
2024-02-26T23:59:20.510Z,6.92
